createdAt,value
2018-07-12T00:02:33.438Z,24.43
2018-07-12T00:05:35.123Z,19.23
2018-07-12T00:08:36.671Z,20.10
2018-07-12T00:11:38.226Z,16.70
2018-07-12T00:14:39.780Z,22.50
2018-07-12T00:17:41.318Z,19.10
2018-07-12T00:20:42.858Z,15.73
2018-07-12T00:23:44.364Z,23.07
2018-07-12T00:26:45.890Z,19.23
2018-07-12T00:29:47.386Z,27.20
2018-07-12T00:32:48.926Z,25.80
2018-07-12T00:35:50.468Z,25.73
2018-07-12T00:38:52.003Z,15.67
2018-07-12T00:41:53.949Z,20.83
2018-07-12T00:44:56.299Z,19.50
2018-07-12T00:47:57.842Z,24.03
2018-07-12T00:50:59.400Z,18.63
2018-07-12T00:54:00.965Z,19.87
2018-07-12T00:57:02.528Z,22.03
2018-07-12T01:00:04.044Z,23.23
2018-07-12T01:03:05.613Z,40.10
2018-07-12T01:06:07.172Z,20.80
2018-07-12T01:09:08.652Z,20.00
2018-07-12T01:12:10.168Z,18.93
2018-07-12T01:15:11.722Z,27.60
2018-07-12T01:18:13.257Z,20.30
2018-07-12T01:21:14.759Z,30.70
2018-07-12T01:24:16.287Z,21.60
2018-07-12T01:27:17.839Z,23.00
2018-07-12T01:30:19.444Z,21.80
2018-07-12T01:33:20.988Z,22.50
2018-07-12T01:36:22.609Z,23.23
2018-07-12T01:39:24.167Z,27.63
2018-07-12T01:42:25.727Z,18.23
2018-07-12T01:45:27.256Z,21.00
2018-07-12T01:48:28.814Z,28.90
2018-07-12T01:51:30.361Z,19.47
2018-07-12T01:54:31.909Z,22.20
2018-07-12T01:57:33.472Z,19.67
2018-07-12T02:00:35.006Z,34.20
2018-07-12T02:03:36.519Z,25.80
2018-07-12T02:06:38.065Z,28.20
2018-07-12T02:09:39.618Z,18.17
2018-07-12T02:12:41.165Z,22.03
2018-07-12T02:15:49.524Z,21.97
2018-07-12T02:18:51.059Z,27.73
2018-07-12T02:21:52.650Z,22.87
2018-07-12T02:24:54.268Z,23.17
2018-07-12T02:27:55.775Z,21.03
2018-07-12T02:30:57.325Z,19.00
2018-07-12T02:33:58.857Z,20.23
2018-07-12T02:37:00.390Z,25.57
2018-07-12T02:40:01.983Z,20.37
2018-07-12T02:43:03.545Z,19.43
2018-07-12T02:46:05.076Z,20.90
2018-07-12T02:49:06.580Z,28.00
2018-07-12T02:52:08.132Z,23.13
2018-07-12T02:55:09.660Z,20.73
2018-07-12T02:58:11.198Z,20.87
2018-07-12T03:01:12.877Z,19.83
2018-07-12T03:04:14.379Z,24.03
2018-07-12T03:07:15.927Z,37.17
2018-07-12T03:10:17.444Z,23.80
2018-07-12T03:13:18.957Z,32.50
2018-07-12T03:16:21.296Z,28.03
2018-07-12T03:19:22.890Z,29.13
2018-07-12T03:22:24.474Z,28.47
2018-07-12T03:25:26.112Z,29.63
2018-07-12T03:28:27.661Z,26.50
2018-07-12T03:31:29.236Z,27.33
2018-07-12T03:34:30.817Z,32.37
2018-07-12T03:37:32.349Z,37.43
2018-07-12T03:40:33.909Z,23.23
2018-07-12T03:43:35.456Z,26.17
2018-07-12T03:46:37.009Z,30.17
2018-07-12T03:49:38.545Z,23.63
2018-07-12T03:52:40.060Z,22.57
2018-07-12T03:55:41.632Z,24.77
2018-07-12T03:58:43.207Z,23.07
2018-07-12T04:01:44.838Z,23.80
2018-07-12T04:04:46.390Z,25.67
2018-07-12T04:07:47.921Z,26.90
2018-07-12T04:10:49.456Z,28.13
2018-07-12T04:13:51.210Z,26.03
2018-07-12T04:16:52.789Z,33.03
2018-07-12T04:19:54.753Z,25.87
2018-07-12T04:22:56.270Z,26.50
2018-07-12T04:25:57.766Z,23.30
2018-07-12T04:28:59.309Z,36.70
2018-07-12T04:32:00.872Z,26.73
2018-07-12T04:35:02.446Z,33.97
2018-07-12T04:38:03.973Z,23.47
2018-07-12T04:41:05.541Z,23.87
2018-07-12T04:44:07.127Z,21.57
2018-07-12T04:47:08.740Z,26.33
2018-07-12T04:50:10.293Z,22.27
2018-07-12T04:53:11.840Z,28.20
2018-07-12T04:56:13.390Z,39.87
2018-07-12T04:59:16.426Z,39.97
2018-07-12T05:02:17.992Z,53.43
2018-07-12T05:05:19.549Z,49.97
2018-07-12T05:08:21.128Z,57.67
2018-07-12T05:11:23.209Z,48.13
2018-07-12T05:14:24.739Z,48.80
2018-07-12T05:17:26.217Z,47.60
2018-07-12T05:20:27.726Z,41.13
2018-07-12T05:23:29.241Z,43.57
2018-07-12T05:26:31.008Z,45.60
2018-07-12T05:29:32.536Z,40.50
2018-07-12T05:32:34.074Z,49.73
2018-07-12T05:35:37.228Z,44.10
2018-07-12T05:38:40.399Z,43.13
2018-07-12T05:41:43.630Z,38.27
2018-07-12T05:44:46.852Z,42.40
2018-07-12T05:47:50.232Z,34.43
2018-07-12T05:50:53.362Z,40.63
2018-07-12T05:53:56.550Z,33.13
2018-07-12T05:56:59.736Z,35.47
2018-07-12T06:00:02.967Z,38.33
2018-07-12T06:03:06.177Z,49.77
2018-07-12T06:06:09.261Z,64.80
2018-07-12T06:09:12.533Z,36.33
2018-07-12T06:12:15.690Z,33.60
2018-07-12T06:15:18.905Z,37.90
2018-07-12T06:18:22.037Z,39.80
2018-07-12T06:21:25.326Z,52.57
2018-07-12T06:24:28.473Z,47.37
2018-07-12T06:27:31.618Z,47.40
2018-07-12T06:30:34.860Z,48.83
2018-07-12T06:33:38.032Z,46.30
2018-07-12T06:36:41.143Z,49.60
2018-07-12T06:39:44.288Z,47.20
2018-07-12T06:42:47.451Z,45.80
2018-07-12T06:45:50.553Z,43.33
2018-07-12T06:48:53.693Z,56.37
2018-07-12T06:51:56.896Z,60.93
2018-07-12T06:55:00.032Z,48.63
2018-07-12T06:58:03.223Z,59.90
2018-07-12T07:01:06.365Z,51.57
2018-07-12T07:04:09.549Z,48.60
2018-07-12T07:07:13.082Z,50.20
2018-07-12T07:10:16.294Z,42.43
2018-07-12T07:13:19.423Z,42.30
2018-07-12T07:16:22.548Z,53.50
2018-07-12T07:19:25.690Z,42.40
2018-07-12T07:22:28.834Z,57.20
2018-07-12T07:25:31.972Z,44.43
2018-07-12T07:28:35.053Z,55.03
2018-07-12T07:31:38.237Z,44.93
2018-07-12T07:34:41.331Z,55.70
2018-07-12T07:37:44.385Z,53.80
2018-07-12T07:40:47.578Z,49.83
2018-07-12T07:43:51.139Z,56.77
2018-07-12T07:46:56.813Z,65.43
2018-07-12T07:49:59.997Z,56.53
2018-07-12T07:53:03.165Z,58.43
2018-07-12T07:56:06.511Z,55.83
2018-07-12T07:59:09.642Z,58.00
2018-07-12T08:02:12.799Z,61.37
2018-07-12T08:05:15.998Z,59.83
2018-07-12T08:08:19.072Z,59.63
2018-07-12T08:11:22.185Z,72.67
2018-07-12T08:14:25.303Z,81.73
2018-07-12T08:17:28.423Z,93.47
2018-07-12T08:20:31.551Z,139.87
2018-07-12T08:23:34.691Z,70.93
2018-07-12T08:26:37.887Z,78.40
2018-07-12T08:29:41.252Z,92.77
2018-07-12T08:32:44.327Z,83.00
2018-07-12T08:35:48.077Z,84.90
2018-07-12T08:38:51.217Z,73.50
2018-07-12T08:41:54.318Z,82.20
2018-07-12T08:44:57.498Z,76.73
2018-07-12T08:48:00.650Z,101.20
2018-07-12T08:51:03.876Z,93.97
2018-07-12T08:54:07.037Z,95.93
2018-07-12T08:57:10.198Z,95.63
2018-07-12T09:00:13.435Z,89.60
2018-07-12T09:03:16.601Z,86.50
2018-07-12T09:06:19.665Z,72.13
2018-07-12T09:09:22.755Z,75.00
2018-07-12T09:12:25.819Z,79.60
2018-07-12T09:15:28.945Z,77.90
2018-07-12T09:18:32.157Z,83.93
2018-07-12T09:21:35.280Z,86.77
2018-07-12T09:24:38.388Z,85.17
2018-07-12T09:27:41.490Z,71.80
2018-07-12T09:30:44.624Z,70.17
2018-07-12T09:33:47.754Z,96.80
2018-07-12T09:36:50.804Z,323.90
2018-07-12T09:39:53.865Z,106.50
2018-07-12T09:42:56.932Z,95.63
2018-07-12T09:45:59.927Z,92.30
2018-07-12T09:49:05.401Z,89.20
2018-07-12T09:52:14.109Z,86.67
2018-07-12T09:55:17.246Z,96.97
2018-07-12T09:58:27.454Z,87.87
2018-07-12T10:01:36.212Z,95.13
2018-07-12T10:04:39.291Z,93.97
2018-07-12T10:07:48.609Z,102.07
2018-07-12T10:10:57.435Z,89.30
2018-07-12T10:14:05.106Z,88.73
2018-07-12T10:17:16.755Z,95.03
2018-07-12T10:20:19.935Z,343.00
2018-07-12T10:23:23.306Z,106.53
2018-07-12T10:26:26.395Z,99.57
2018-07-12T10:29:29.412Z,85.87
2018-07-12T10:32:32.852Z,83.57
2018-07-12T10:35:37.052Z,85.13
2018-07-12T10:38:40.145Z,59.73
2018-07-12T10:41:43.227Z,52.87
2018-07-12T10:44:46.292Z,51.93
2018-07-12T10:47:49.409Z,58.70
2018-07-12T10:50:52.433Z,64.80
2018-07-12T10:53:55.567Z,65.90
2018-07-12T10:56:58.585Z,134.53
2018-07-12T11:00:02.011Z,60.70
2018-07-12T11:03:05.314Z,52.50
2018-07-12T11:06:08.434Z,52.03
2018-07-12T11:09:11.622Z,53.00
2018-07-12T11:12:14.658Z,49.33
2018-07-12T11:15:17.710Z,38.63
2018-07-12T11:18:20.760Z,40.90
2018-07-12T11:21:23.788Z,32.77
2018-07-12T11:24:26.744Z,37.40
2018-07-12T11:27:29.700Z,44.30
2018-07-12T11:30:33.809Z,46.17
2018-07-12T11:33:38.524Z,128.43
2018-07-12T11:36:41.645Z,63.20
2018-07-12T11:39:44.722Z,38.23
2018-07-12T11:42:48.049Z,34.40
2018-07-12T11:45:51.056Z,30.67
2018-07-12T11:48:53.986Z,28.10
2018-07-12T11:51:56.958Z,24.13
2018-07-12T11:54:59.922Z,21.23
2018-07-12T11:58:03.221Z,21.63
2018-07-12T12:01:06.325Z,26.77
2018-07-12T12:04:09.367Z,25.80
2018-07-12T12:07:12.485Z,19.13
2018-07-12T12:10:15.504Z,17.40
2018-07-12T12:13:18.572Z,15.90
2018-07-12T12:16:21.593Z,19.40
2018-07-12T12:19:24.784Z,18.33
2018-07-12T12:22:27.864Z,18.13
2018-07-12T12:25:31.029Z,10.83
2018-07-12T12:28:34.217Z,14.73
2018-07-12T12:31:37.422Z,13.17
2018-07-12T12:34:40.626Z,18.77
2018-07-12T12:37:43.675Z,15.73
2018-07-12T12:40:46.636Z,16.00
2018-07-12T12:43:49.601Z,12.50
2018-07-12T12:46:52.557Z,14.63
2018-07-12T12:49:55.533Z,9.70
2018-07-12T12:52:58.450Z,16.40
2018-07-12T12:56:01.485Z,16.60
2018-07-12T12:59:04.742Z,10.57
2018-07-12T13:02:07.815Z,12.80
2018-07-12T13:05:10.899Z,11.23
2018-07-12T13:08:13.973Z,10.57
2018-07-12T13:11:17.019Z,11.90
2018-07-12T13:14:20.081Z,11.30
2018-07-12T13:17:23.090Z,12.83
2018-07-12T13:20:26.065Z,10.53
2018-07-12T13:23:29.000Z,12.80
2018-07-12T13:26:33.043Z,8.83
2018-07-12T13:29:36.141Z,10.10
2018-07-12T13:32:39.199Z,11.33
2018-07-12T13:35:42.279Z,9.73
2018-07-12T13:38:45.300Z,8.80
2018-07-12T13:41:48.262Z,10.33
2018-07-12T13:44:51.217Z,20.63
2018-07-12T13:47:54.181Z,12.00
2018-07-12T13:50:57.133Z,9.03
2018-07-12T13:54:00.085Z,11.73
2018-07-12T13:57:04.471Z,9.43
2018-07-12T14:00:07.558Z,7.40
2018-07-12T14:03:10.657Z,6.70
2018-07-12T14:06:13.746Z,11.70
2018-07-12T14:09:17.018Z,8.33
2018-07-12T14:12:20.022Z,8.80
2018-07-12T14:15:22.978Z,7.93
2018-07-12T14:18:25.896Z,10.83
2018-07-12T14:21:28.818Z,11.30
2018-07-12T14:24:32.038Z,8.20
2018-07-12T14:27:35.122Z,5.30
2018-07-12T14:30:38.210Z,14.63
2018-07-12T14:33:41.213Z,14.17
2018-07-12T14:36:44.202Z,7.83
2018-07-12T14:39:47.129Z,6.07
2018-07-12T14:42:50.050Z,6.23
2018-07-12T14:45:52.994Z,5.43
2018-07-12T14:48:55.932Z,11.53
2018-07-12T14:51:58.867Z,9.03
2018-07-12T14:55:03.066Z,11.43
2018-07-12T14:58:06.174Z,8.97
2018-07-12T15:01:09.261Z,7.07
2018-07-12T15:04:12.438Z,6.93
2018-07-12T15:07:15.460Z,6.23
2018-07-12T15:10:18.503Z,7.30
2018-07-12T15:13:21.562Z,10.60
2018-07-12T15:16:24.504Z,5.10
2018-07-12T15:19:27.482Z,4.50
2018-07-12T15:22:37.360Z,10.47
2018-07-12T15:25:40.751Z,5.90
2018-07-12T15:28:43.793Z,9.13
2018-07-12T15:31:46.733Z,7.33
2018-07-12T15:34:49.667Z,5.47
2018-07-12T15:37:52.512Z,5.63
2018-07-12T15:40:55.510Z,13.63
2018-07-12T15:43:58.482Z,7.73
2018-07-12T15:47:01.413Z,5.40
2018-07-12T15:50:04.704Z,30.63
2018-07-12T15:53:07.945Z,7.90
2018-07-12T15:56:11.018Z,4.50
2018-07-12T15:59:14.148Z,5.63
2018-07-12T16:02:17.186Z,11.73
2018-07-12T16:05:20.238Z,10.47
2018-07-12T16:08:23.279Z,17.47
2018-07-12T16:11:26.261Z,15.77
2018-07-12T16:14:29.225Z,10.80
2018-07-12T16:17:32.364Z,15.40
2018-07-12T16:20:35.728Z,11.30
2018-07-12T16:23:38.775Z,22.30
2018-07-12T16:26:42.069Z,12.50
2018-07-12T16:29:45.149Z,12.03
2018-07-12T16:32:48.119Z,19.83
2018-07-12T16:35:51.141Z,19.23
2018-07-12T16:38:54.205Z,9.23
2018-07-12T16:41:57.228Z,14.73
2018-07-12T16:45:00.126Z,10.50
2018-07-12T16:48:03.419Z,19.37
2018-07-12T16:51:06.527Z,17.00
2018-07-12T16:54:09.639Z,13.03
2018-07-12T16:57:12.785Z,11.10
2018-07-12T17:00:18.192Z,14.17
2018-07-12T17:03:21.227Z,10.67
2018-07-12T17:06:24.318Z,11.23
2018-07-12T17:09:27.345Z,11.57
2018-07-12T17:12:30.357Z,14.60
2018-07-12T17:15:33.670Z,12.13
2018-07-12T17:18:36.752Z,10.67
2018-07-12T17:21:39.947Z,12.73
2018-07-12T17:24:43.277Z,9.30
2018-07-12T17:27:46.290Z,10.33
2018-07-12T17:30:49.331Z,8.83
2018-07-12T17:33:52.404Z,23.37
2018-07-12T17:36:55.410Z,11.17
2018-07-12T17:39:58.462Z,10.97
2018-07-12T17:43:01.798Z,5.83
2018-07-12T17:46:05.034Z,5.67
2018-07-12T17:49:08.182Z,5.17
2018-07-12T17:52:11.274Z,9.10
2018-07-12T17:55:14.382Z,6.33
2018-07-12T17:58:17.386Z,13.97
2018-07-12T18:01:20.435Z,10.57
2018-07-12T18:04:23.384Z,9.77
2018-07-12T18:07:26.357Z,16.93
2018-07-12T18:10:29.348Z,5.63
2018-07-12T18:13:32.678Z,9.00
2018-07-12T18:16:35.813Z,9.03
2018-07-12T18:19:38.914Z,4.53
2018-07-12T18:22:43.259Z,6.67
2018-07-12T18:25:47.122Z,9.73
2018-07-12T18:28:51.421Z,8.60
2018-07-12T18:31:54.598Z,5.87
2018-07-12T18:34:57.632Z,12.93
2018-07-12T18:38:01.568Z,11.40
2018-07-12T18:41:05.095Z,6.17
2018-07-12T18:44:08.457Z,12.10
2018-07-12T18:47:11.542Z,6.60
2018-07-12T18:50:14.707Z,8.47
2018-07-12T18:53:18.253Z,8.47
2018-07-12T18:56:22.079Z,5.97
2018-07-12T18:59:25.950Z,5.47
2018-07-12T19:02:29.042Z,7.30
2018-07-12T19:05:32.786Z,9.27
2018-07-12T19:08:36.432Z,16.20
2018-07-12T19:11:40.306Z,7.63
2018-07-12T19:14:44.750Z,8.60
2018-07-12T19:17:48.499Z,6.40
2018-07-12T19:20:51.769Z,10.60
2018-07-12T19:23:56.870Z,10.63
2018-07-12T19:27:00.684Z,3.90
2018-07-12T19:30:04.573Z,7.20
2018-07-12T19:33:14.579Z,7.20
2018-07-12T19:36:18.094Z,7.83
2018-07-12T19:39:22.028Z,7.07
2018-07-12T19:42:28.371Z,7.70
2018-07-12T19:45:32.718Z,5.87
2018-07-12T19:48:37.081Z,5.97
2018-07-12T19:51:40.254Z,7.90
2018-07-12T19:54:44.244Z,7.83
2018-07-12T19:57:47.467Z,14.20
2018-07-12T20:00:51.552Z,9.47
2018-07-12T20:03:55.286Z,12.20
2018-07-12T20:06:59.222Z,10.73
2018-07-12T20:10:03.574Z,10.30
2018-07-12T20:13:06.793Z,10.37
2018-07-12T20:16:10.008Z,7.37
2018-07-12T20:19:13.291Z,13.50
2018-07-12T20:22:16.471Z,10.63
2018-07-12T20:25:19.874Z,5.87
2018-07-12T20:28:23.458Z,19.43
2018-07-12T20:31:26.455Z,178.27
2018-07-12T20:34:29.945Z,18.53
2018-07-12T20:37:35.404Z,21.07
2018-07-12T20:40:40.488Z,7.10
2018-07-12T20:43:44.480Z,21.23
2018-07-12T20:46:47.923Z,14.13
2018-07-12T20:49:51.077Z,7.83
2018-07-12T20:52:54.058Z,8.80
2018-07-12T20:55:57.751Z,7.57
2018-07-12T20:59:00.909Z,8.77
2018-07-12T21:02:04.769Z,7.17
2018-07-12T21:05:08.228Z,9.40
2018-07-12T21:08:11.535Z,10.70
2018-07-12T21:11:14.961Z,17.00
2018-07-12T21:14:18.509Z,15.63
2018-07-12T21:17:21.785Z,8.87
2018-07-12T21:20:25.149Z,15.47
2018-07-12T21:23:28.338Z,9.60
2018-07-12T21:26:31.797Z,6.63
2018-07-12T21:29:35.104Z,7.20
2018-07-12T21:32:38.543Z,11.80
2018-07-12T21:35:41.580Z,9.03
2018-07-12T21:38:45.042Z,15.53
2018-07-12T21:41:48.767Z,10.17
2018-07-12T21:44:51.962Z,14.40
2018-07-12T21:47:55.226Z,13.03
2018-07-12T21:50:58.641Z,5.67
2018-07-12T21:54:02.506Z,12.33
2018-07-12T21:57:05.704Z,9.47
2018-07-12T22:00:09.972Z,7.87
2018-07-12T22:03:13.380Z,7.73
2018-07-12T22:06:22.235Z,9.60
2018-07-12T22:09:26.566Z,11.80
2018-07-12T22:12:30.233Z,9.20
2018-07-12T22:15:33.999Z,9.10
2018-07-12T22:18:37.261Z,12.20
2018-07-12T22:21:40.387Z,6.53
2018-07-12T22:24:43.523Z,10.43
2018-07-12T22:27:46.755Z,19.53
2018-07-12T22:30:50.010Z,10.63
2018-07-12T22:33:53.283Z,7.37
2018-07-12T22:36:56.413Z,9.47
2018-07-12T22:39:59.474Z,15.73
2018-07-12T22:43:02.714Z,10.80
2018-07-12T22:46:11.669Z,13.47
2018-07-12T22:49:18.064Z,18.10
2018-07-12T22:52:21.357Z,13.00
2018-07-12T22:55:24.456Z,11.70
2018-07-12T22:58:27.572Z,8.97
2018-07-12T23:01:30.941Z,13.57
2018-07-12T23:04:34.169Z,10.43
2018-07-12T23:07:37.327Z,10.73
2018-07-12T23:10:40.528Z,8.60
2018-07-12T23:13:43.768Z,8.00
2018-07-12T23:16:46.945Z,12.30
2018-07-12T23:19:51.030Z,7.73
2018-07-12T23:22:54.338Z,12.23
2018-07-12T23:25:57.478Z,16.30
2018-07-12T23:29:00.754Z,10.83
2018-07-12T23:32:03.963Z,16.23
2018-07-12T23:35:07.121Z,11.53
2018-07-12T23:38:10.162Z,8.03
2018-07-12T23:41:13.284Z,13.37
2018-07-12T23:44:16.507Z,18.30
2018-07-12T23:47:19.605Z,9.50
2018-07-12T23:50:32.247Z,16.50
2018-07-12T23:53:35.452Z,8.97
2018-07-12T23:56:38.608Z,17.00
2018-07-12T23:59:41.660Z,16.60
